createdAt,value
2022-12-22T00:01:55.640Z,100.00
2022-12-22T00:04:41.209Z,100.00
2022-12-22T00:07:26.676Z,100.00
2022-12-22T00:10:11.628Z,100.00
2022-12-22T00:12:57.911Z,100.00
2022-12-22T00:15:43.293Z,100.00
2022-12-22T00:18:33.819Z,100.00
2022-12-22T00:21:19.138Z,100.00
2022-12-22T00:24:03.952Z,100.00
2022-12-22T00:26:52.934Z,100.00
2022-12-22T00:29:38.671Z,100.00
2022-12-22T00:32:24.058Z,100.00
2022-12-22T00:35:10.495Z,100.00
2022-12-22T00:37:56.857Z,100.00
2022-12-22T00:40:45.710Z,100.00
2022-12-22T00:43:31.134Z,100.00
2022-12-22T00:46:18.420Z,100.00
2022-12-22T00:49:03.485Z,100.00
2022-12-22T00:51:49.919Z,100.00
2022-12-22T00:54:37.163Z,100.00
2022-12-22T00:57:22.540Z,100.00
2022-12-22T01:00:08.910Z,100.00
2022-12-22T01:02:54.048Z,100.00
2022-12-22T01:05:39.379Z,100.00
2022-12-22T01:08:24.648Z,100.00
2022-12-22T01:11:09.568Z,100.00
2022-12-22T01:13:54.279Z,100.00
2022-12-22T01:16:39.090Z,100.00
2022-12-22T01:19:23.863Z,100.00
2022-12-22T01:22:09.093Z,100.00
2022-12-22T01:24:53.824Z,100.00
2022-12-22T01:27:38.615Z,100.00
2022-12-22T01:30:23.953Z,100.00
2022-12-22T01:33:08.721Z,100.00
2022-12-22T01:35:54.077Z,100.00
2022-12-22T01:38:38.933Z,100.00
2022-12-22T01:41:28.778Z,100.00
2022-12-22T01:44:13.624Z,100.00
2022-12-22T01:47:04.605Z,100.00
2022-12-22T01:50:02.476Z,100.00
2022-12-22T01:52:51.325Z,100.00
2022-12-22T01:55:41.230Z,100.00
2022-12-22T01:58:39.208Z,100.00
2022-12-22T02:01:24.111Z,100.00
2022-12-22T02:04:09.246Z,100.00
2022-12-22T02:07:00.456Z,100.00
2022-12-22T02:10:08.046Z,100.00
2022-12-22T02:13:15.919Z,100.00
2022-12-22T02:16:12.164Z,100.00
2022-12-22T02:19:16.396Z,100.00
2022-12-22T02:22:21.911Z,100.00
2022-12-22T02:25:18.439Z,100.00
2022-12-22T02:28:06.001Z,100.00
2022-12-22T02:30:51.993Z,100.00
2022-12-22T02:33:39.379Z,100.00
2022-12-22T02:36:55.471Z,100.00
2022-12-22T02:40:01.804Z,100.00
2022-12-22T02:42:59.284Z,100.00
2022-12-22T02:45:58.905Z,100.00
2022-12-22T02:48:59.434Z,100.00
2022-12-22T02:51:47.264Z,100.00
2022-12-22T02:54:34.768Z,100.00
2022-12-22T02:57:25.120Z,100.00
2022-12-22T03:00:09.885Z,100.00
2022-12-22T03:02:54.917Z,100.00
2022-12-22T03:05:39.992Z,100.00
2022-12-22T03:08:24.863Z,100.00
2022-12-22T03:11:09.795Z,100.00
2022-12-22T03:13:54.606Z,100.00
2022-12-22T03:16:39.529Z,100.00
2022-12-22T03:19:24.703Z,100.00
2022-12-22T03:22:09.488Z,100.00
2022-12-22T03:24:54.397Z,100.00
2022-12-22T03:27:20.820Z,100.00
2022-12-22T03:29:47.226Z,100.00
2022-12-22T03:32:13.642Z,100.00
2022-12-22T03:34:40.047Z,100.00
2022-12-22T03:37:06.449Z,100.00
2022-12-22T03:39:32.883Z,100.00
2022-12-22T03:42:17.975Z,100.00
2022-12-22T03:45:02.746Z,100.00
2022-12-22T03:47:31.369Z,100.00
2022-12-22T03:49:58.113Z,100.00
2022-12-22T03:52:24.544Z,100.00
2022-12-22T03:54:51.278Z,100.00
2022-12-22T03:57:17.720Z,100.00
2022-12-22T03:59:44.152Z,100.00
2022-12-22T04:02:10.742Z,100.00
2022-12-22T04:04:37.271Z,100.00
2022-12-22T04:07:03.813Z,100.00
2022-12-22T04:09:30.255Z,100.00
2022-12-22T04:12:15.003Z,100.00
2022-12-22T04:14:41.431Z,100.00
2022-12-22T04:17:08.087Z,100.00
2022-12-22T04:19:34.532Z,100.00
2022-12-22T04:22:01.521Z,100.00
2022-12-22T04:24:28.070Z,100.00
2022-12-22T04:26:54.686Z,100.00
2022-12-22T04:29:21.184Z,100.00
2022-12-22T04:31:47.597Z,100.00
2022-12-22T04:34:14.058Z,100.00
2022-12-22T04:36:40.499Z,100.00
2022-12-22T04:39:06.891Z,100.00
2022-12-22T04:41:33.315Z,100.00
2022-12-22T04:43:59.858Z,100.00
2022-12-22T04:46:26.363Z,100.00
2022-12-22T04:48:59.285Z,100.00
2022-12-22T04:51:26.749Z,100.00
2022-12-22T04:53:53.140Z,100.00
2022-12-22T04:56:19.559Z,100.00
2022-12-22T04:58:45.956Z,100.00
2022-12-22T05:01:15.817Z,100.00
2022-12-22T05:03:42.671Z,100.00
2022-12-22T05:06:10.031Z,100.00
2022-12-22T05:08:36.944Z,100.00
2022-12-22T05:11:03.473Z,100.00
2022-12-22T05:13:31.738Z,100.00
2022-12-22T05:16:09.792Z,100.00
2022-12-22T05:18:36.992Z,100.00
2022-12-22T05:21:06.427Z,100.00
2022-12-22T05:23:33.417Z,100.00
2022-12-22T05:25:59.868Z,100.00
2022-12-22T05:28:26.317Z,100.00
2022-12-22T05:30:53.504Z,100.00
2022-12-22T05:33:20.943Z,100.00
2022-12-22T05:35:47.406Z,100.00
2022-12-22T05:38:13.847Z,100.00
2022-12-22T05:40:40.274Z,100.00
2022-12-22T05:43:06.715Z,100.00
2022-12-22T05:45:33.162Z,100.00
2022-12-22T05:47:59.655Z,100.00
2022-12-22T05:50:26.299Z,100.00
2022-12-22T05:53:04.441Z,100.00
2022-12-22T05:55:30.967Z,100.00
2022-12-22T05:57:57.423Z,100.00
2022-12-22T06:00:23.918Z,100.00
2022-12-22T06:02:50.463Z,99.94
2022-12-22T06:05:16.917Z,100.00
2022-12-22T06:07:43.405Z,99.97
2022-12-22T06:10:12.627Z,100.00
2022-12-22T06:12:40.265Z,99.57
2022-12-22T06:15:07.726Z,99.68
2022-12-22T06:17:36.777Z,99.94
2022-12-22T06:20:09.487Z,99.83
2022-12-22T06:22:36.009Z,99.77
2022-12-22T06:25:02.512Z,100.00
2022-12-22T06:27:28.931Z,99.98
2022-12-22T06:29:55.347Z,99.47
2022-12-22T06:32:21.731Z,99.82
2022-12-22T06:34:48.141Z,99.55
2022-12-22T06:37:14.524Z,99.81
2022-12-22T06:39:40.948Z,99.46
2022-12-22T06:42:27.317Z,99.65
2022-12-22T06:44:54.900Z,99.57
2022-12-22T06:47:21.948Z,99.66
2022-12-22T06:49:48.586Z,99.29
2022-12-22T06:52:14.991Z,99.36
2022-12-22T06:54:41.435Z,99.30
2022-12-22T06:57:07.840Z,99.02
2022-12-22T06:59:34.292Z,98.80
2022-12-22T07:02:00.842Z,98.41
2022-12-22T07:04:27.357Z,98.43
2022-12-22T07:06:53.772Z,98.77
2022-12-22T07:09:20.446Z,98.81
2022-12-22T07:11:46.845Z,98.58
2022-12-22T07:14:13.342Z,97.89
2022-12-22T07:16:39.880Z,97.99
2022-12-22T07:19:06.344Z,97.60
2022-12-22T07:21:32.732Z,97.69
2022-12-22T07:23:59.152Z,97.60
2022-12-22T07:26:25.623Z,97.41
2022-12-22T07:28:52.081Z,96.65
2022-12-22T07:31:18.956Z,96.75
2022-12-22T07:33:45.514Z,96.55
2022-12-22T07:36:15.088Z,95.92
2022-12-22T07:38:44.175Z,96.14
2022-12-22T07:41:31.285Z,95.76
2022-12-22T07:44:01.318Z,95.51
2022-12-22T07:46:30.378Z,94.91
2022-12-22T07:49:16.135Z,94.87
2022-12-22T07:51:43.241Z,94.49
2022-12-22T07:54:12.231Z,94.71
2022-12-22T07:56:39.074Z,94.10
2022-12-22T07:59:05.829Z,94.31
2022-12-22T08:01:32.590Z,94.20
2022-12-22T08:03:59.201Z,94.21
2022-12-22T08:06:26.438Z,93.94
2022-12-22T08:08:53.128Z,93.72
2022-12-22T08:11:19.632Z,94.01
2022-12-22T08:13:46.799Z,93.83
2022-12-22T08:16:14.404Z,93.98
2022-12-22T08:18:41.408Z,94.04
2022-12-22T08:21:09.017Z,94.18
2022-12-22T08:23:36.108Z,94.22
2022-12-22T08:26:31.069Z,94.34
2022-12-22T08:29:10.617Z,94.06
2022-12-22T08:31:38.072Z,93.99
2022-12-22T08:34:07.668Z,93.75
2022-12-22T08:36:38.268Z,93.47
2022-12-22T08:39:04.840Z,93.00
2022-12-22T08:41:50.302Z,92.81
2022-12-22T08:44:19.955Z,91.97
2022-12-22T08:46:47.277Z,91.95
2022-12-22T08:49:13.834Z,91.09
2022-12-22T08:51:40.430Z,91.46
2022-12-22T08:54:07.130Z,91.00
2022-12-22T08:56:34.371Z,90.83
2022-12-22T08:59:05.049Z,90.55
2022-12-22T09:01:33.205Z,90.41
2022-12-22T09:04:00.114Z,89.95
2022-12-22T09:06:28.499Z,89.88
2022-12-22T09:08:59.917Z,89.33
2022-12-22T09:11:28.101Z,88.48
2022-12-22T09:13:56.367Z,87.95
2022-12-22T09:16:24.816Z,87.50
2022-12-22T09:18:51.463Z,86.68
2022-12-22T09:21:18.111Z,86.92
2022-12-22T09:23:44.884Z,86.85
2022-12-22T09:26:13.616Z,86.81
2022-12-22T09:28:45.070Z,86.63
2022-12-22T09:31:14.994Z,86.88
2022-12-22T09:33:41.416Z,86.47
2022-12-22T09:36:13.985Z,86.46
2022-12-22T09:38:43.117Z,86.13
2022-12-22T09:41:15.413Z,86.36
2022-12-22T09:43:42.546Z,86.47
2022-12-22T09:46:27.597Z,86.01
2022-12-22T09:48:55.131Z,85.30
2022-12-22T09:51:27.076Z,84.84
2022-12-22T09:53:59.907Z,84.69
2022-12-22T09:56:28.169Z,84.57
2022-12-22T09:58:54.795Z,84.40
2022-12-22T10:01:39.180Z,84.62
2022-12-22T10:04:30.051Z,84.20
2022-12-22T10:07:10.377Z,85.55
2022-12-22T10:09:52.666Z,86.79
2022-12-22T10:12:23.053Z,88.05
2022-12-22T10:14:52.159Z,89.03
2022-12-22T10:17:34.184Z,90.07
2022-12-22T10:20:19.110Z,91.41
2022-12-22T10:22:49.695Z,91.91
2022-12-22T10:28:24.330Z,93.32
2022-12-22T10:31:10.681Z,94.25
2022-12-22T10:33:45.816Z,94.40
2022-12-22T10:36:14.427Z,95.00
2022-12-22T10:38:55.265Z,95.06
2022-12-22T10:41:24.443Z,95.35
2022-12-22T10:44:00.632Z,95.51
2022-12-22T10:46:44.146Z,95.85
2022-12-22T10:49:23.322Z,96.21
2022-12-22T10:51:56.168Z,96.67
2022-12-22T10:54:33.733Z,96.99
2022-12-22T10:57:01.179Z,97.23
2022-12-22T10:59:27.688Z,97.14
2022-12-22T11:01:54.192Z,97.08
2022-12-22T11:04:27.951Z,97.30
2022-12-22T11:06:58.387Z,97.19
2022-12-22T11:09:34.982Z,97.33
2022-12-22T11:12:17.489Z,97.40
2022-12-22T11:14:57.446Z,97.32
2022-12-22T11:17:32.871Z,97.43
2022-12-22T11:20:31.441Z,97.01
2022-12-22T11:23:05.607Z,97.03
2022-12-22T11:25:47.281Z,97.01
2022-12-22T11:28:47.950Z,96.14
2022-12-22T11:31:40.197Z,95.44
2022-12-22T11:34:09.539Z,95.25
2022-12-22T11:36:50.157Z,95.29
2022-12-22T11:39:23.298Z,94.41
2022-12-22T11:42:00.864Z,94.63
2022-12-22T11:44:39.860Z,94.70
2022-12-22T11:47:24.697Z,94.82
2022-12-22T11:50:58.555Z,94.83
2022-12-22T11:53:29.655Z,94.24
2022-12-22T11:56:23.826Z,93.70
2022-12-22T11:59:02.380Z,92.98
2022-12-22T12:02:01.587Z,93.15
2022-12-22T12:04:31.154Z,92.64
2022-12-22T12:07:25.980Z,92.86
2022-12-22T12:10:25.002Z,92.08
2022-12-22T12:13:12.858Z,91.28
2022-12-22T12:15:58.996Z,91.33
2022-12-22T12:18:26.768Z,90.35
2022-12-22T12:21:08.480Z,90.49
2022-12-22T12:23:59.824Z,89.53
2022-12-22T12:26:32.760Z,89.55
2022-12-22T12:29:28.406Z,88.48
2022-12-22T12:32:23.962Z,87.48
2022-12-22T12:34:56.992Z,87.44
2022-12-22T12:37:35.736Z,87.43
2022-12-22T12:40:26.863Z,87.39
2022-12-22T12:42:54.236Z,86.89
2022-12-22T12:45:39.654Z,87.43
2022-12-22T12:48:21.674Z,86.49
2022-12-22T12:50:55.470Z,86.63
2022-12-22T12:53:29.360Z,85.97
2022-12-22T12:56:01.558Z,85.17
2022-12-22T12:58:40.073Z,84.02
2022-12-22T13:01:18.585Z,82.57
2022-12-22T13:06:49.986Z,81.62
2022-12-22T13:12:39.791Z,80.56
2022-12-22T13:15:31.822Z,81.31
2022-12-22T13:17:59.028Z,80.26
2022-12-22T13:20:29.945Z,80.75
2022-12-22T13:22:59.037Z,81.26
2022-12-22T13:25:36.547Z,80.85
2022-12-22T13:28:03.619Z,81.01
2022-12-22T13:30:30.594Z,80.92
2022-12-22T13:33:02.011Z,80.83
2022-12-22T13:35:46.664Z,79.62
2022-12-22T13:38:35.814Z,80.01
2022-12-22T13:41:21.354Z,80.23
2022-12-22T13:43:59.514Z,79.05
2022-12-22T13:46:27.092Z,79.41
2022-12-22T13:48:56.823Z,79.67
2022-12-22T13:51:33.955Z,79.53
2022-12-22T13:54:22.796Z,78.89
2022-12-22T13:56:54.719Z,78.77
2022-12-22T13:59:40.515Z,79.41
2022-12-22T14:02:10.040Z,79.82
2022-12-22T14:04:38.954Z,79.66
2022-12-22T14:07:18.414Z,79.83
2022-12-22T14:09:46.516Z,80.21
2022-12-22T14:12:16.945Z,79.07
2022-12-22T14:14:45.868Z,79.46
2022-12-22T14:17:24.251Z,79.88
2022-12-22T14:19:53.537Z,79.63
2022-12-22T14:22:25.018Z,79.66
2022-12-22T14:24:55.560Z,79.36
2022-12-22T14:27:27.917Z,79.63
2022-12-22T14:29:54.738Z,80.17
2022-12-22T14:32:40.858Z,80.35
2022-12-22T14:35:19.409Z,80.40
2022-12-22T14:37:52.296Z,80.12
2022-12-22T14:40:36.027Z,80.18
2022-12-22T14:43:07.010Z,80.44
2022-12-22T14:45:33.941Z,79.86
2022-12-22T14:48:00.402Z,79.80
2022-12-22T14:50:28.412Z,79.73
2022-12-22T14:52:57.624Z,79.59
2022-12-22T14:55:42.108Z,79.45
2022-12-22T14:58:15.641Z,79.55
2022-12-22T15:00:48.298Z,79.16
2022-12-22T15:03:34.400Z,79.52
2022-12-22T15:06:24.480Z,79.60
2022-12-22T15:08:57.507Z,80.04
2022-12-22T15:11:24.412Z,79.82
2022-12-22T15:13:51.760Z,79.81
2022-12-22T15:16:21.409Z,79.42
2022-12-22T15:18:49.447Z,79.58
2022-12-22T15:21:17.868Z,79.41
2022-12-22T15:23:44.739Z,80.11
2022-12-22T15:26:11.395Z,79.83
2022-12-22T15:28:38.116Z,79.94
2022-12-22T15:31:11.790Z,80.09
2022-12-22T15:33:38.217Z,80.38
2022-12-22T15:36:06.402Z,80.18
2022-12-22T15:38:38.569Z,80.29
2022-12-22T15:41:05.791Z,79.91
2022-12-22T15:44:02.134Z,80.01
2022-12-22T15:46:18.857Z,79.62
2022-12-22T15:48:46.367Z,79.77
2022-12-22T15:51:22.324Z,79.78
2022-12-22T15:53:49.144Z,79.25
2022-12-22T15:56:20.237Z,79.27
2022-12-22T15:58:47.149Z,79.24
2022-12-22T16:01:13.672Z,79.42
2022-12-22T16:03:40.309Z,79.67
2022-12-22T16:06:13.689Z,79.72
2022-12-22T16:08:43.271Z,79.35
2022-12-22T16:11:09.788Z,79.31
2022-12-22T16:13:37.716Z,79.84
2022-12-22T16:16:05.082Z,79.34
2022-12-22T16:18:32.666Z,79.52
2022-12-22T16:21:07.837Z,79.35
2022-12-22T16:23:36.585Z,78.98
2022-12-22T16:26:04.791Z,79.40
2022-12-22T16:28:32.919Z,79.30
2022-12-22T16:31:00.488Z,78.84
2022-12-22T16:33:27.194Z,78.89
2022-12-22T16:35:53.708Z,79.17
2022-12-22T16:38:20.347Z,79.37
2022-12-22T16:40:50.275Z,79.27
2022-12-22T16:43:49.997Z,79.09
2022-12-22T16:46:19.680Z,78.92
2022-12-22T16:48:55.173Z,79.08
2022-12-22T16:51:25.752Z,78.85
2022-12-22T16:53:52.559Z,79.10
2022-12-22T16:56:22.695Z,79.25
2022-12-22T16:58:49.506Z,78.81
2022-12-22T17:01:27.109Z,79.14
2022-12-22T17:03:54.499Z,79.21
2022-12-22T17:06:21.115Z,79.19
2022-12-22T17:08:48.078Z,79.55
2022-12-22T17:11:26.024Z,79.61
2022-12-22T17:13:57.345Z,79.84
2022-12-22T17:16:23.957Z,79.45
2022-12-22T17:18:50.434Z,79.51
2022-12-22T17:21:19.160Z,79.76
2022-12-22T17:23:49.701Z,80.09
2022-12-22T17:26:19.244Z,79.93
2022-12-22T17:28:47.094Z,80.17
2022-12-22T17:31:19.194Z,79.85
2022-12-22T17:33:46.137Z,80.46
2022-12-22T17:36:30.512Z,80.46
2022-12-22T17:38:57.672Z,80.44
2022-12-22T17:41:24.197Z,80.44
2022-12-22T17:43:50.605Z,80.88
2022-12-22T17:46:19.297Z,80.80
2022-12-22T17:48:46.219Z,81.03
2022-12-22T17:51:19.540Z,81.12
2022-12-22T17:53:46.602Z,81.56
2022-12-22T17:56:20.475Z,81.58
2022-12-22T17:58:47.186Z,81.76
2022-12-22T18:01:40.697Z,81.82
2022-12-22T18:04:10.038Z,81.85
2022-12-22T18:06:40.986Z,82.13
2022-12-22T18:09:08.122Z,82.30
2022-12-22T18:11:36.317Z,82.65
2022-12-22T18:14:04.561Z,82.74
2022-12-22T18:16:31.030Z,82.82
2022-12-22T18:18:57.462Z,83.03
2022-12-22T18:21:24.899Z,83.20
2022-12-22T18:23:51.553Z,83.14
2022-12-22T18:26:27.879Z,83.31
2022-12-22T18:28:55.377Z,83.40
2022-12-22T18:31:23.051Z,83.22
2022-12-22T18:33:50.772Z,83.70
2022-12-22T18:36:19.576Z,83.72
2022-12-22T18:38:47.910Z,83.92
2022-12-22T18:41:20.277Z,84.06
2022-12-22T18:43:46.927Z,83.91
2022-12-22T18:46:13.432Z,84.48
2022-12-22T18:48:39.933Z,84.29
2022-12-22T18:51:15.300Z,84.42
2022-12-22T18:53:41.699Z,84.50
2022-12-22T18:56:11.724Z,84.68
2022-12-22T18:58:38.221Z,85.02
2022-12-22T19:01:04.943Z,85.32
2022-12-22T19:03:31.612Z,85.14
2022-12-22T19:05:58.550Z,85.52
2022-12-22T19:08:27.199Z,85.89
2022-12-22T19:11:03.922Z,86.11
2022-12-22T19:13:36.776Z,86.04
2022-12-22T19:16:03.709Z,86.03
2022-12-22T19:18:30.159Z,86.04
2022-12-22T19:20:57.010Z,86.58
2022-12-22T19:23:25.704Z,86.54
2022-12-22T19:26:08.519Z,86.43
2022-12-22T19:28:42.443Z,86.86
2022-12-22T19:31:16.047Z,86.68
2022-12-22T19:33:43.475Z,87.13
2022-12-22T19:36:25.755Z,86.70
2022-12-22T19:39:05.744Z,87.19
2022-12-22T19:41:38.307Z,86.94
2022-12-22T19:44:05.697Z,87.34
2022-12-22T19:46:34.532Z,87.56
2022-12-22T19:49:01.105Z,87.54
2022-12-22T19:51:28.837Z,87.73
2022-12-22T19:53:55.343Z,87.69
2022-12-22T19:56:28.107Z,88.14
2022-12-22T19:58:55.637Z,87.98
2022-12-22T20:01:22.641Z,88.11
2022-12-22T20:03:49.257Z,88.71
2022-12-22T20:06:17.475Z,88.67
2022-12-22T20:08:44.667Z,88.79
2022-12-22T20:11:17.060Z,88.87
2022-12-22T20:13:44.089Z,89.05
2022-12-22T20:16:15.187Z,89.24
2022-12-22T20:18:42.537Z,89.63
2022-12-22T20:21:21.150Z,89.83
2022-12-22T20:23:48.166Z,89.90
2022-12-22T20:26:19.221Z,89.94
2022-12-22T20:28:45.715Z,90.43
2022-12-22T20:31:14.528Z,90.56
2022-12-22T20:33:41.249Z,90.69
2022-12-22T20:36:19.271Z,91.04
2022-12-22T20:38:46.127Z,91.18
2022-12-22T20:41:12.585Z,91.31
2022-12-22T20:43:39.529Z,92.11
2022-12-22T20:46:15.893Z,92.29
2022-12-22T20:48:46.781Z,92.35
2022-12-22T20:51:18.160Z,92.69
2022-12-22T20:53:45.107Z,92.73
2022-12-22T20:56:28.099Z,93.12
2022-12-22T20:58:55.338Z,93.04
2022-12-22T21:01:23.516Z,93.57
2022-12-22T21:03:50.500Z,93.88
2022-12-22T21:06:29.224Z,94.14
2022-12-22T21:08:57.940Z,94.40
2022-12-22T21:11:25.541Z,94.49
2022-12-22T21:13:52.252Z,94.54
2022-12-22T21:16:23.671Z,94.74
2022-12-22T21:18:50.935Z,95.04
2022-12-22T21:21:17.546Z,95.00
2022-12-22T21:23:43.939Z,95.10
2022-12-22T21:26:29.171Z,95.43
2022-12-22T21:28:55.994Z,95.53
2022-12-22T21:31:22.508Z,95.55
2022-12-22T21:33:50.192Z,95.62
2022-12-22T21:36:22.621Z,95.79
2022-12-22T21:38:53.463Z,95.97
2022-12-22T21:41:39.859Z,96.33
2022-12-22T21:44:06.270Z,96.55
2022-12-22T21:46:33.329Z,96.63
2022-12-22T21:48:59.773Z,96.69
2022-12-22T21:51:26.193Z,96.78
2022-12-22T21:53:52.584Z,96.95
2022-12-22T21:56:19.367Z,97.05
2022-12-22T21:58:45.806Z,97.05
2022-12-22T22:01:15.828Z,96.80
2022-12-22T22:03:42.607Z,97.13
2022-12-22T22:06:09.068Z,97.22
2022-12-22T22:08:35.453Z,96.95
2022-12-22T22:11:01.836Z,97.21
2022-12-22T22:13:28.222Z,97.08
2022-12-22T22:15:54.682Z,97.21
2022-12-22T22:18:21.101Z,97.07
2022-12-22T22:20:47.899Z,97.22
2022-12-22T22:23:14.496Z,97.43
2022-12-22T22:25:41.009Z,97.27
2022-12-22T22:28:10.376Z,97.31
2022-12-22T22:30:36.812Z,97.14
2022-12-22T22:33:03.550Z,97.24
2022-12-22T22:35:29.998Z,97.38
2022-12-22T22:37:56.499Z,97.12
2022-12-22T22:40:23.588Z,96.83
2022-12-22T22:42:50.043Z,97.00
2022-12-22T22:45:23.037Z,96.75
2022-12-22T22:47:51.068Z,96.79
2022-12-22T22:50:18.907Z,96.74
2022-12-22T22:52:45.723Z,96.25
2022-12-22T22:55:12.734Z,96.28
2022-12-22T22:57:39.179Z,96.24
2022-12-22T23:00:06.497Z,97.04
2022-12-22T23:02:33.089Z,97.08
2022-12-22T23:04:59.612Z,96.99
2022-12-22T23:07:26.104Z,97.18
2022-12-22T23:09:52.573Z,97.34
2022-12-22T23:12:19.175Z,97.73
2022-12-22T23:14:45.643Z,97.49
2022-12-22T23:17:12.080Z,97.93
2022-12-22T23:19:38.572Z,97.90
2022-12-22T23:22:05.010Z,98.01
2022-12-22T23:24:31.439Z,98.19
2022-12-22T23:26:58.728Z,98.01
2022-12-22T23:29:25.228Z,97.96
2022-12-22T23:31:51.765Z,98.25
2022-12-22T23:34:18.234Z,98.51
2022-12-22T23:36:44.636Z,98.72
2022-12-22T23:39:11.188Z,98.42
2022-12-22T23:41:37.614Z,98.35
2022-12-22T23:44:04.024Z,98.80
2022-12-22T23:46:30.470Z,98.72
2022-12-22T23:48:58.455Z,98.98
2022-12-22T23:51:27.651Z,99.02
2022-12-22T23:53:55.383Z,98.98
2022-12-22T23:56:22.757Z,98.95
2022-12-22T23:58:54.573Z,99.11
